createdAt,value
2022-10-20T00:01:26.220Z,99.90
2022-10-20T00:03:55.713Z,99.90
2022-10-20T00:06:26.163Z,99.90
2022-10-20T00:08:58.014Z,99.90
2022-10-20T00:11:28.066Z,99.90
2022-10-20T00:14:00.127Z,99.90
2022-10-20T00:16:31.363Z,99.90
2022-10-20T00:19:00.485Z,99.90
2022-10-20T00:21:30.524Z,99.90
2022-10-20T00:24:02.049Z,99.90
2022-10-20T00:26:32.245Z,99.90
2022-10-20T00:29:03.621Z,99.90
2022-10-20T00:31:32.996Z,99.90
2022-10-20T00:34:01.752Z,99.90
2022-10-20T00:36:30.677Z,99.90
2022-10-20T00:39:01.586Z,99.90
2022-10-20T00:41:31.227Z,99.90
2022-10-20T00:44:03.203Z,99.90
2022-10-20T00:46:38.744Z,99.90
2022-10-20T00:49:14.150Z,99.90
2022-10-20T00:51:43.624Z,99.90
2022-10-20T00:54:16.454Z,99.90
2022-10-20T00:56:47.291Z,99.90
2022-10-20T00:59:23.080Z,99.90
2022-10-20T01:01:52.195Z,99.90
2022-10-20T01:04:21.236Z,99.90
2022-10-20T01:06:50.217Z,99.90
2022-10-20T01:09:19.173Z,99.90
2022-10-20T01:11:57.616Z,99.90
2022-10-20T01:14:39.198Z,99.90
2022-10-20T01:17:18.266Z,99.90
2022-10-20T01:20:24.595Z,99.90
2022-10-20T01:23:23.613Z,99.90
2022-10-20T01:26:10.274Z,99.90
2022-10-20T01:28:47.687Z,99.90
2022-10-20T01:31:29.950Z,99.90
2022-10-20T01:34:04.755Z,99.90
2022-10-20T01:36:39.106Z,99.90
2022-10-20T01:39:12.286Z,99.90
2022-10-20T01:41:43.742Z,99.90
2022-10-20T01:44:17.625Z,99.90
2022-10-20T01:46:47.722Z,99.90
2022-10-20T01:49:17.067Z,99.90
2022-10-20T01:51:45.969Z,99.90
2022-10-20T01:54:25.086Z,99.90
2022-10-20T01:57:09.051Z,99.90
2022-10-20T02:00:04.151Z,99.90
2022-10-20T02:03:00.726Z,99.90
2022-10-20T02:05:41.484Z,99.90
2022-10-20T02:08:18.124Z,99.90
2022-10-20T02:10:49.876Z,99.90
2022-10-20T02:13:20.290Z,99.90
2022-10-20T02:15:55.049Z,99.90
2022-10-20T02:18:28.127Z,99.90
2022-10-20T02:21:00.024Z,99.90
2022-10-20T02:23:35.111Z,99.90
2022-10-20T02:26:08.845Z,99.90
2022-10-20T02:28:41.874Z,99.90
2022-10-20T02:31:12.822Z,99.90
2022-10-20T02:33:44.963Z,99.90
2022-10-20T02:36:18.233Z,99.90
2022-10-20T02:38:47.502Z,99.90
2022-10-20T02:41:16.463Z,99.90
2022-10-20T02:43:45.265Z,99.90
2022-10-20T02:46:17.426Z,99.90
2022-10-20T02:48:46.574Z,99.90
2022-10-20T02:51:15.534Z,99.90
2022-10-20T02:53:44.324Z,99.90
2022-10-20T02:56:13.500Z,99.90
2022-10-20T02:58:42.594Z,99.90
2022-10-20T03:01:11.425Z,99.90
2022-10-20T03:03:41.574Z,99.90
2022-10-20T03:06:12.296Z,99.90
2022-10-20T03:08:41.404Z,99.90
2022-10-20T03:11:10.749Z,99.90
2022-10-20T03:13:39.522Z,99.90
2022-10-20T03:16:08.646Z,99.90
2022-10-20T03:18:37.472Z,99.90
2022-10-20T03:21:07.673Z,99.90
2022-10-20T03:23:36.534Z,99.90
2022-10-20T03:26:06.233Z,99.90
2022-10-20T03:28:35.393Z,99.90
2022-10-20T03:31:04.754Z,99.90
2022-10-20T03:33:33.470Z,99.90
2022-10-20T03:36:02.762Z,99.90
2022-10-20T03:38:33.006Z,99.90
2022-10-20T03:43:36.653Z,99.90
2022-10-20T03:46:06.784Z,99.90
2022-10-20T03:48:36.240Z,99.90
2022-10-20T03:51:05.838Z,99.90
2022-10-20T03:53:36.434Z,99.90
2022-10-20T03:56:08.304Z,99.90
2022-10-20T03:58:37.592Z,99.90
2022-10-20T04:01:09.445Z,99.90
2022-10-20T04:03:38.235Z,99.90
2022-10-20T04:06:07.343Z,99.90
2022-10-20T04:08:37.709Z,99.90
2022-10-20T04:11:06.973Z,99.90
2022-10-20T04:13:35.792Z,99.90
2022-10-20T04:16:04.553Z,99.90
2022-10-20T04:18:33.594Z,99.90
2022-10-20T04:21:02.420Z,99.90
2022-10-20T04:23:31.208Z,99.90
2022-10-20T04:26:01.462Z,99.90
2022-10-20T04:28:31.252Z,99.90
2022-10-20T04:31:01.949Z,99.90
2022-10-20T04:33:30.816Z,99.90
2022-10-20T04:36:00.766Z,99.90
2022-10-20T04:38:31.453Z,99.90
2022-10-20T04:41:04.476Z,99.90
2022-10-20T04:43:33.891Z,99.90
2022-10-20T04:46:06.991Z,99.90
2022-10-20T04:48:38.259Z,99.90
2022-10-20T04:51:09.319Z,99.90
2022-10-20T04:53:38.294Z,99.90
2022-10-20T04:56:10.328Z,99.90
2022-10-20T04:58:39.169Z,99.90
2022-10-20T05:01:09.708Z,99.90
2022-10-20T05:03:38.857Z,99.90
2022-10-20T05:06:12.344Z,99.90
2022-10-20T05:08:44.073Z,99.90
2022-10-20T05:11:15.678Z,99.90
2022-10-20T05:13:44.916Z,99.90
2022-10-20T05:16:14.207Z,99.90
2022-10-20T05:18:43.096Z,99.90
2022-10-20T05:21:14.267Z,99.90
2022-10-20T05:23:44.049Z,99.90
2022-10-20T05:26:16.559Z,99.90
2022-10-20T05:28:46.822Z,99.90
2022-10-20T05:31:16.400Z,99.90
2022-10-20T05:33:47.087Z,99.90
2022-10-20T05:36:21.175Z,99.90
2022-10-20T05:38:52.431Z,99.90
2022-10-20T05:41:24.961Z,99.90
2022-10-20T05:43:57.392Z,99.90
2022-10-20T05:49:33.397Z,99.90
2022-10-20T05:52:10.286Z,99.90
2022-10-20T05:54:39.058Z,99.90
2022-10-20T05:57:09.251Z,99.90
2022-10-20T05:59:38.020Z,99.90
2022-10-20T06:02:06.838Z,99.90
2022-10-20T06:04:35.780Z,99.90
2022-10-20T06:07:06.038Z,99.90
2022-10-20T06:09:34.938Z,99.90
2022-10-20T06:12:03.918Z,99.90
2022-10-20T06:14:34.423Z,99.90
2022-10-20T06:17:03.616Z,99.90
2022-10-20T06:19:32.574Z,99.90
2022-10-20T06:22:05.451Z,99.90
2022-10-20T06:24:35.973Z,99.90
2022-10-20T06:27:04.963Z,99.90
2022-10-20T06:29:35.336Z,99.90
2022-10-20T06:32:04.575Z,99.90
2022-10-20T06:34:33.670Z,99.90
2022-10-20T06:37:02.555Z,99.90
2022-10-20T06:39:31.428Z,99.90
2022-10-20T06:42:00.330Z,99.90
2022-10-20T06:44:35.521Z,99.90
2022-10-20T06:47:07.702Z,99.90
2022-10-20T06:49:36.729Z,99.90
2022-10-20T06:52:06.090Z,99.90
2022-10-20T06:54:35.140Z,99.90
2022-10-20T06:57:04.081Z,99.90
2022-10-20T06:59:34.642Z,99.90
2022-10-20T07:02:03.591Z,99.90
2022-10-20T07:04:32.389Z,99.90
2022-10-20T07:07:01.295Z,99.90
2022-10-20T07:09:30.213Z,99.90
2022-10-20T07:11:59.133Z,99.90
2022-10-20T07:14:31.607Z,99.80
2022-10-20T07:17:02.940Z,99.70
2022-10-20T07:19:32.131Z,99.70
2022-10-20T07:22:01.244Z,99.70
2022-10-20T07:24:30.430Z,99.40
2022-10-20T07:26:59.313Z,99.20
2022-10-20T07:29:28.374Z,99.00
2022-10-20T07:31:59.964Z,99.00
2022-10-20T07:34:31.841Z,98.70
2022-10-20T07:37:00.781Z,98.80
2022-10-20T07:39:30.010Z,98.20
2022-10-20T07:41:58.948Z,98.00
2022-10-20T07:44:27.780Z,97.90
2022-10-20T07:46:56.730Z,97.80
2022-10-20T07:49:43.433Z,97.80
2022-10-20T07:52:16.721Z,97.60
2022-10-20T07:54:45.992Z,97.50
2022-10-20T07:57:14.831Z,97.20
2022-10-20T07:59:43.922Z,97.00
2022-10-20T08:02:15.998Z,97.30
2022-10-20T08:04:45.994Z,97.30
2022-10-20T08:07:16.413Z,97.10
2022-10-20T08:09:47.514Z,97.10
2022-10-20T08:12:17.031Z,97.30
2022-10-20T08:14:46.204Z,97.00
2022-10-20T08:17:15.112Z,96.80
2022-10-20T08:20:00.282Z,96.60
2022-10-20T08:22:30.631Z,96.60
2022-10-20T08:24:59.615Z,96.30
2022-10-20T08:27:28.559Z,96.20
2022-10-20T08:30:06.210Z,96.50
2022-10-20T08:32:46.483Z,96.30
2022-10-20T08:35:15.360Z,96.00
2022-10-20T08:37:45.810Z,95.50
2022-10-20T08:40:19.372Z,95.70
2022-10-20T08:42:49.563Z,94.80
2022-10-20T08:45:20.792Z,94.70
2022-10-20T08:47:52.529Z,94.40
2022-10-20T08:50:23.282Z,94.00
2022-10-20T08:52:57.672Z,94.30
2022-10-20T08:55:30.047Z,94.80
2022-10-20T08:58:03.693Z,94.50
2022-10-20T09:00:36.020Z,94.70
2022-10-20T09:03:17.013Z,94.50
2022-10-20T09:05:50.093Z,94.20
2022-10-20T09:08:22.872Z,95.10
2022-10-20T09:10:54.951Z,95.00
2022-10-20T09:13:27.124Z,95.20
2022-10-20T09:16:00.373Z,95.20
2022-10-20T09:18:29.473Z,94.80
2022-10-20T09:21:02.111Z,94.50
2022-10-20T09:23:41.958Z,95.10
2022-10-20T09:26:30.355Z,94.80
2022-10-20T09:29:13.385Z,94.90
2022-10-20T09:31:45.854Z,94.70
2022-10-20T09:34:26.564Z,94.50
2022-10-20T09:36:59.481Z,95.10
2022-10-20T09:39:33.611Z,95.00
2022-10-20T09:42:06.607Z,95.40
2022-10-20T09:44:46.545Z,94.10
2022-10-20T09:47:17.602Z,93.90
2022-10-20T09:49:47.622Z,93.20
2022-10-20T09:52:20.364Z,92.60
2022-10-20T09:54:52.213Z,93.00
2022-10-20T09:57:24.274Z,92.70
2022-10-20T09:59:55.833Z,91.70
2022-10-20T10:02:33.972Z,91.60
2022-10-20T10:05:19.272Z,90.90
2022-10-20T10:07:59.562Z,90.70
2022-10-20T10:10:31.872Z,91.20
2022-10-20T10:13:04.111Z,90.90
2022-10-20T10:15:35.989Z,90.80
2022-10-20T10:18:15.421Z,91.20
2022-10-20T10:20:44.442Z,90.90
2022-10-20T10:23:22.483Z,91.40
2022-10-20T10:25:56.792Z,91.10
2022-10-20T10:28:38.526Z,90.60
2022-10-20T10:31:25.281Z,90.30
2022-10-20T10:34:03.832Z,90.00
2022-10-20T10:36:35.796Z,89.00
2022-10-20T10:39:08.073Z,88.20
2022-10-20T10:42:00.886Z,86.00
2022-10-20T10:44:45.443Z,86.50
2022-10-20T10:47:34.207Z,86.10
2022-10-20T10:50:23.999Z,86.90
2022-10-20T10:53:00.568Z,87.90
2022-10-20T10:55:48.260Z,86.70
2022-10-20T10:58:30.457Z,87.40
2022-10-20T11:01:11.155Z,84.90
2022-10-20T11:04:09.575Z,83.40
2022-10-20T11:06:45.110Z,84.00
2022-10-20T11:09:26.930Z,84.10
2022-10-20T11:12:16.167Z,82.90
2022-10-20T11:14:55.625Z,81.50
2022-10-20T11:17:40.036Z,80.40
2022-10-20T11:20:26.938Z,79.20
2022-10-20T11:23:15.950Z,78.40
2022-10-20T11:25:51.418Z,78.20
2022-10-20T11:28:30.851Z,75.60
2022-10-20T11:31:01.879Z,76.50
2022-10-20T11:33:39.306Z,77.40
2022-10-20T11:36:17.013Z,76.40
2022-10-20T11:38:51.335Z,74.70
2022-10-20T11:41:25.328Z,74.00
2022-10-20T11:44:00.558Z,75.70
2022-10-20T11:46:38.407Z,73.30
2022-10-20T11:49:12.360Z,73.30
2022-10-20T11:52:04.496Z,71.80
2022-10-20T11:55:06.408Z,71.20
2022-10-20T11:57:48.398Z,70.30
2022-10-20T12:00:43.681Z,71.10
2022-10-20T12:03:43.027Z,72.90
2022-10-20T12:06:49.252Z,75.80
2022-10-20T12:09:44.659Z,77.50
2022-10-20T12:12:20.109Z,78.20
2022-10-20T12:14:55.581Z,76.80
2022-10-20T12:17:34.618Z,75.80
2022-10-20T12:20:47.907Z,78.00
2022-10-20T12:23:52.318Z,76.70
2022-10-20T12:27:06.038Z,78.10
2022-10-20T12:30:24.091Z,80.60
2022-10-20T12:33:18.078Z,78.20
2022-10-20T12:36:13.751Z,78.40
2022-10-20T12:38:43.997Z,80.80
2022-10-20T12:41:26.239Z,80.80
2022-10-20T12:43:59.678Z,78.50
2022-10-20T12:46:31.677Z,77.20
2022-10-20T12:49:06.760Z,76.80
2022-10-20T12:51:42.298Z,73.60
2022-10-20T12:54:22.639Z,72.60
2022-10-20T12:56:52.357Z,73.40
2022-10-20T12:59:43.196Z,72.00
2022-10-20T13:02:45.554Z,70.80
2022-10-20T13:05:48.533Z,72.00
2022-10-20T13:08:31.571Z,75.50
2022-10-20T13:11:41.139Z,78.30
2022-10-20T13:14:48.562Z,75.80
2022-10-20T13:18:20.303Z,76.20
2022-10-20T13:20:56.943Z,74.80
2022-10-20T13:23:30.972Z,75.40
2022-10-20T13:26:01.354Z,75.30
2022-10-20T13:28:33.005Z,75.30
2022-10-20T13:31:20.829Z,75.80
2022-10-20T13:34:04.508Z,74.40
2022-10-20T13:36:57.178Z,72.10
2022-10-20T13:39:36.310Z,74.00
2022-10-20T13:42:13.871Z,75.00
2022-10-20T13:44:54.753Z,75.80
2022-10-20T13:47:49.600Z,75.80
2022-10-20T13:50:22.076Z,75.90
2022-10-20T13:52:57.175Z,78.40
2022-10-20T13:55:28.400Z,78.80
2022-10-20T13:57:59.651Z,80.20
2022-10-20T14:00:30.227Z,80.60
2022-10-20T14:03:03.896Z,81.00
2022-10-20T14:05:39.260Z,81.20
2022-10-20T14:08:12.531Z,80.20
2022-10-20T14:10:48.655Z,79.80
2022-10-20T14:13:21.114Z,81.00
2022-10-20T14:15:53.738Z,80.20
2022-10-20T14:18:25.639Z,80.80
2022-10-20T14:21:03.589Z,81.40
2022-10-20T14:23:36.916Z,83.50
2022-10-20T14:26:08.746Z,84.10
2022-10-20T14:28:38.726Z,83.40
2022-10-20T14:31:09.507Z,82.70
2022-10-20T14:33:43.306Z,81.40
2022-10-20T14:36:20.888Z,82.20
2022-10-20T14:38:53.460Z,82.40
2022-10-20T14:41:27.444Z,81.40
2022-10-20T14:44:03.344Z,82.50
2022-10-20T14:46:38.509Z,82.30
2022-10-20T14:49:16.507Z,84.30
2022-10-20T14:51:55.404Z,82.70
2022-10-20T14:54:36.327Z,82.50
2022-10-20T14:57:31.509Z,82.30
2022-10-20T15:00:03.865Z,80.30
2022-10-20T15:02:35.536Z,79.70
2022-10-20T15:05:23.478Z,79.50
2022-10-20T15:07:52.940Z,77.90
2022-10-20T15:10:26.119Z,79.50
2022-10-20T15:12:56.589Z,78.80
2022-10-20T15:15:27.895Z,79.10
2022-10-20T15:18:14.616Z,80.30
2022-10-20T15:20:44.497Z,80.70
2022-10-20T15:23:15.575Z,81.40
2022-10-20T15:25:50.159Z,80.70
2022-10-20T15:28:33.023Z,83.40
2022-10-20T15:31:03.184Z,84.00
2022-10-20T15:33:31.913Z,85.10
2022-10-20T15:36:02.174Z,86.30
2022-10-20T15:38:31.284Z,87.20
2022-10-20T15:41:03.220Z,88.70
2022-10-20T15:43:32.015Z,89.30
2022-10-20T15:46:00.781Z,88.60
2022-10-20T15:48:29.582Z,87.20
2022-10-20T15:50:59.334Z,86.40
2022-10-20T15:53:28.074Z,89.90
2022-10-20T15:55:56.976Z,90.60
2022-10-20T15:58:27.165Z,92.00
2022-10-20T16:00:56.003Z,93.40
2022-10-20T16:03:24.906Z,94.50
2022-10-20T16:05:54.076Z,95.50
2022-10-20T16:08:22.867Z,96.00
2022-10-20T16:10:51.676Z,96.40
2022-10-20T16:13:21.326Z,96.70
2022-10-20T16:15:51.598Z,97.20
2022-10-20T16:18:21.535Z,97.40
2022-10-20T16:20:50.337Z,97.70
2022-10-20T16:23:19.137Z,97.80
2022-10-20T16:25:47.920Z,98.10
2022-10-20T16:28:16.719Z,98.40
2022-10-20T16:30:46.141Z,98.50
2022-10-20T16:33:16.509Z,98.70
2022-10-20T16:35:45.851Z,98.90
2022-10-20T16:38:14.550Z,99.00
2022-10-20T16:40:43.440Z,99.00
2022-10-20T16:43:12.274Z,99.20
2022-10-20T16:45:41.367Z,99.60
2022-10-20T16:48:10.164Z,99.80
2022-10-20T16:50:44.006Z,99.90
2022-10-20T16:53:12.861Z,99.90
2022-10-20T16:55:41.745Z,99.90
2022-10-20T16:58:10.493Z,99.90
2022-10-20T17:00:39.350Z,99.90
2022-10-20T17:03:08.241Z,99.90
2022-10-20T17:05:37.007Z,99.90
2022-10-20T17:08:07.282Z,99.90
2022-10-20T17:10:36.095Z,99.90
2022-10-20T17:13:04.838Z,99.90
2022-10-20T17:15:33.679Z,99.90
2022-10-20T17:18:02.441Z,99.90
2022-10-20T17:20:31.484Z,99.90
2022-10-20T17:23:02.959Z,99.90
2022-10-20T17:25:34.525Z,99.90
2022-10-20T17:28:03.365Z,99.90
2022-10-20T17:30:32.299Z,99.90
2022-10-20T17:33:01.098Z,99.90
2022-10-20T17:35:31.659Z,99.90
2022-10-20T17:38:04.382Z,99.90
2022-10-20T17:40:39.359Z,99.90
2022-10-20T17:43:08.241Z,99.90
2022-10-20T17:45:39.512Z,99.90
2022-10-20T17:48:10.181Z,99.90
2022-10-20T17:50:39.041Z,99.90
2022-10-20T17:53:07.812Z,99.90
2022-10-20T17:55:38.030Z,99.90
2022-10-20T17:58:08.881Z,99.90
2022-10-20T18:00:55.524Z,99.90
2022-10-20T18:03:26.602Z,99.90
2022-10-20T18:05:56.198Z,99.90
2022-10-20T18:08:25.023Z,99.90
2022-10-20T18:10:55.240Z,99.90
2022-10-20T18:13:23.958Z,99.90
2022-10-20T18:15:52.819Z,99.90
2022-10-20T18:18:21.550Z,99.90
2022-10-20T18:20:56.460Z,99.90
2022-10-20T18:23:25.920Z,99.90
2022-10-20T18:25:56.173Z,99.90
2022-10-20T18:28:25.275Z,99.90
2022-10-20T18:30:54.116Z,99.90
2022-10-20T18:33:23.010Z,99.90
2022-10-20T18:35:53.944Z,99.90
2022-10-20T18:38:22.750Z,99.90
2022-10-20T18:40:51.521Z,99.90
2022-10-20T18:43:21.740Z,99.90
2022-10-20T18:45:53.451Z,99.90
2022-10-20T18:48:22.430Z,99.90
2022-10-20T18:50:55.321Z,99.90
2022-10-20T18:53:24.741Z,99.90
2022-10-20T18:56:03.819Z,99.90
2022-10-20T18:58:36.702Z,99.90
2022-10-20T19:01:07.748Z,99.90
2022-10-20T19:03:38.361Z,99.90
2022-10-20T19:06:09.670Z,99.90
2022-10-20T19:08:39.472Z,99.90
2022-10-20T19:11:10.410Z,99.90
2022-10-20T19:13:41.231Z,99.90
2022-10-20T19:16:12.941Z,99.90
2022-10-20T19:18:44.081Z,99.90
2022-10-20T19:21:13.116Z,99.90
2022-10-20T19:23:44.341Z,99.90
2022-10-20T19:26:14.981Z,99.90
2022-10-20T19:28:47.941Z,99.90
2022-10-20T19:31:21.409Z,99.90
2022-10-20T19:33:52.244Z,99.90
2022-10-20T19:36:21.501Z,99.90
2022-10-20T19:38:50.460Z,99.90
2022-10-20T19:41:19.488Z,99.90
2022-10-20T19:43:50.270Z,99.90
2022-10-20T19:46:20.770Z,99.90
2022-10-20T19:48:50.811Z,99.90
2022-10-20T19:51:21.683Z,99.90
2022-10-20T19:53:51.240Z,99.90
2022-10-20T19:56:20.251Z,99.90
2022-10-20T19:58:50.790Z,99.90
2022-10-20T20:01:22.277Z,99.90
2022-10-20T20:03:51.210Z,99.90
2022-10-20T20:06:21.610Z,99.90
2022-10-20T20:08:54.136Z,99.90
2022-10-20T20:11:26.569Z,99.90
2022-10-20T20:13:59.511Z,99.90
2022-10-20T20:16:29.654Z,99.90
2022-10-20T20:18:58.751Z,99.90
2022-10-20T20:21:27.971Z,99.90
2022-10-20T20:23:59.896Z,99.90
2022-10-20T20:26:30.803Z,99.90
2022-10-20T20:29:01.509Z,99.90
2022-10-20T20:31:30.751Z,99.90
2022-10-20T20:33:59.748Z,99.90
2022-10-20T20:36:29.343Z,99.90
2022-10-20T20:38:59.313Z,99.90
2022-10-20T20:41:30.420Z,99.90
2022-10-20T20:44:05.448Z,99.90
2022-10-20T20:46:36.683Z,99.90
2022-10-20T20:49:05.910Z,99.90
2022-10-20T20:51:34.712Z,99.90
2022-10-20T20:54:04.871Z,99.90
2022-10-20T20:56:34.133Z,99.90
2022-10-20T20:59:04.862Z,99.90
2022-10-20T21:01:34.164Z,99.90
2022-10-20T21:04:05.289Z,99.90
2022-10-20T21:07:00.057Z,99.90
2022-10-20T21:09:24.990Z,99.90
2022-10-20T21:11:53.836Z,99.90
2022-10-20T21:14:24.313Z,99.90
2022-10-20T21:16:53.073Z,99.90
2022-10-20T21:19:24.743Z,99.90
2022-10-20T21:21:57.582Z,99.90
2022-10-20T21:24:27.521Z,99.90
2022-10-20T21:26:56.918Z,99.90
2022-10-20T21:29:27.298Z,99.90
2022-10-20T21:31:58.161Z,99.90
2022-10-20T21:34:27.181Z,99.90
2022-10-20T21:36:55.946Z,99.90
2022-10-20T21:39:24.951Z,99.90
2022-10-20T21:41:53.725Z,99.90
2022-10-20T21:44:22.854Z,99.90
2022-10-20T21:46:53.650Z,99.90
2022-10-20T21:49:25.503Z,99.90
2022-10-20T21:51:56.189Z,99.90
2022-10-20T21:54:26.725Z,99.90
2022-10-20T21:56:56.479Z,99.90
2022-10-20T21:59:26.643Z,99.90
2022-10-20T22:01:58.616Z,99.90
2022-10-20T22:04:29.598Z,99.90
2022-10-20T22:06:59.620Z,99.90
2022-10-20T22:09:28.931Z,99.90
2022-10-20T22:11:59.135Z,99.90
2022-10-20T22:14:28.270Z,99.90
2022-10-20T22:16:58.538Z,99.90
2022-10-20T22:19:27.329Z,99.90
2022-10-20T22:24:30.762Z,99.90
2022-10-20T22:26:59.685Z,99.90
2022-10-20T22:29:28.954Z,99.90
2022-10-20T22:31:59.288Z,99.90
2022-10-20T22:34:28.118Z,99.90
2022-10-20T22:36:57.818Z,99.90
2022-10-20T22:39:26.568Z,99.90
2022-10-20T22:41:55.338Z,99.90
2022-10-20T22:44:24.129Z,99.90
2022-10-20T22:46:53.048Z,99.90
2022-10-20T22:49:23.299Z,99.90
2022-10-20T22:51:52.065Z,99.90
2022-10-20T22:54:20.975Z,99.90
2022-10-20T22:56:52.656Z,99.90
2022-10-20T22:59:21.665Z,99.90
2022-10-20T23:01:50.409Z,99.90
2022-10-20T23:04:19.259Z,99.90
2022-10-20T23:06:49.466Z,99.90
2022-10-20T23:09:18.457Z,99.90
2022-10-20T23:11:47.283Z,99.90
2022-10-20T23:14:16.014Z,99.90
2022-10-20T23:16:44.762Z,99.90
2022-10-20T23:19:13.795Z,99.90
2022-10-20T23:21:42.598Z,99.90
2022-10-20T23:24:12.887Z,99.90
2022-10-20T23:26:41.679Z,99.90
2022-10-20T23:29:10.718Z,99.90
2022-10-20T23:31:39.591Z,99.90
2022-10-20T23:34:08.353Z,99.90
2022-10-20T23:36:39.085Z,99.90
2022-10-20T23:39:08.296Z,99.90
2022-10-20T23:41:38.556Z,99.90
2022-10-20T23:44:07.676Z,99.90
2022-10-20T23:46:36.574Z,99.90
2022-10-20T23:49:06.375Z,99.90
2022-10-20T23:51:35.208Z,99.90
2022-10-20T23:54:04.156Z,99.90
2022-10-20T23:56:33.016Z,99.90
2022-10-20T23:59:03.492Z,99.90
